Time;durP1;ratioP1;P1;durP2;ratioP2;P2;SDS_P1;SDS_P2;PMS_P1;PMS_P2;Temp;Humidity;BMP_temperature;BMP_pressure;BME280_temperature;BME280_humidity;BME280_pressure;Samples;Min_cycle;Max_cycle;Signal;HPM_P1;HPM_P2
2023/07/31 00:01:07;;;;;;;3.97;1.75;;;17.10;1.00;;;;;;7392346;19;20023;-70
2023/07/31 00:03:37;;;;;;;4.78;1.50;;;17.00;1.00;;;;;;7393570;19;20029;-70
2023/07/31 00:06:07;;;;;;;4.25;2.08;;;16.90;1.00;;;;;;7392502;19;20032;-70
2023/07/31 00:08:36;;;;;;;2.83;1.35;;;16.90;1.00;;;;;;7393779;19;20022;-70
2023/07/31 00:11:06;;;;;;;4.80;1.52;;;16.90;1.00;;;;;;7391820;19;20018;-70
2023/07/31 00:13:36;;;;;;;4.00;1.40;;;16.80;1.00;;;;;;7393276;19;20077;-70
2023/07/31 00:16:09;;;;;;;2.97;1.70;;;16.80;1.00;;;;;;7393840;19;20027;-70
2023/07/31 00:18:39;;;;;;;4.93;1.92;;;16.80;1.00;;;;;;7393031;19;20050;-70
2023/07/31 00:21:09;;;;;;;6.80;1.80;;;16.80;1.00;;;;;;7391864;19;20027;-70
2023/07/31 00:23:38;;;;;;;4.35;2.08;;;16.70;1.00;;;;;;7392574;19;20046;-70
2023/07/31 00:26:08;;;;;;;4.72;1.80;;;16.70;1.00;;;;;;7392370;19;20032;-70
2023/07/31 00:28:38;;;;;;;5.05;1.98;;;16.70;1.00;;;;;;7392386;19;20010;-70
2023/07/31 00:31:11;;;;;;;3.15;1.80;;;16.60;1.00;;;;;;7391141;19;20015;-70
2023/07/31 00:33:41;;;;;;;6.07;1.52;;;16.60;1.00;;;;;;7392861;19;20018;-70
2023/07/31 00:36:11;;;;;;;4.50;1.80;;;16.60;1.00;;;;;;7392721;19;20014;-70
2023/07/31 00:38:41;;;;;;;4.20;1.58;;;16.60;1.00;;;;;;7392201;19;20070;-70
2023/07/31 00:41:11;;;;;;;6.28;1.65;;;16.50;1.00;;;;;;7389712;19;20073;-71
2023/07/31 00:43:41;;;;;;;4.55;1.50;;;16.50;1.00;;;;;;7392271;19;20027;-70
2023/07/31 00:46:13;;;;;;;5.25;1.90;;;16.50;1.00;;;;;;7392705;19;20023;-70
2023/07/31 00:48:43;;;;;;;5.72;1.80;;;16.50;1.00;;;;;;7392306;19;20514;-70
2023/07/31 00:51:13;;;;;;;4.30;1.95;;;16.40;1.00;;;;;;7390725;19;20007;-70
2023/07/31 00:53:44;;;;;;;3.67;1.70;;;16.40;1.00;;;;;;7391696;19;20518;-70
2023/07/31 00:56:14;;;;;;;3.15;1.85;;;16.30;1.00;;;;;;7392005;19;20011;-70
2023/07/31 00:58:44;;;;;;;4.32;1.70;;;16.20;1.00;;;;;;7392285;19;20018;-70
2023/07/31 01:01:17;;;;;;;3.25;1.80;;;16.20;1.00;;;;;;7390491;19;20032;-70
2023/07/31 01:03:47;;;;;;;7.55;2.38;;;16.10;1.00;;;;;;7391524;19;20014;-70
2023/07/31 01:06:21;;;;;;;5.28;2.00;;;16.20;1.00;;;;;;7391424;19;20015;-70
2023/07/31 01:08:57;;;;;;;6.70;2.08;;;16.20;1.00;;;;;;7391685;19;20059;-70
2023/07/31 01:11:30;;;;;;;6.95;2.10;;;16.10;1.00;;;;;;7390275;19;20018;-70
2023/07/31 01:14:00;;;;;;;5.90;2.10;;;16.00;1.00;;;;;;7391144;19;20477;-70
2023/07/31 01:16:33;;;;;;;3.90;1.80;;;16.00;1.00;;;;;;7391466;19;20015;-70
2023/07/31 01:19:03;;;;;;;3.17;1.52;;;15.90;1.00;;;;;;7391411;19;20022;-71
2023/07/31 01:21:59;;;;;;;7.20;1.80;;;15.90;1.00;;;;;;7389579;19;20530;-70
2023/07/31 01:24:38;;;;;;;3.80;2.08;;;16.00;1.00;;;;;;7391299;19;20019;-70
2023/07/31 01:27:15;;;;;;;4.43;1.90;;;16.10;1.00;;;;;;7389638;19;20031;-70
2023/07/31 01:29:53;;;;;;;3.17;1.75;;;16.10;1.00;;;;;;7390915;19;20050;-70
2023/07/31 01:32:25;;;;;;;7.55;1.90;;;16.10;1.00;;;;;;7391123;19;20010;-70
2023/07/31 01:34:56;;;;;;;3.92;1.50;;;16.00;1.00;;;;;;7390268;19;20010;-70
2023/07/31 01:37:30;;;;;;;4.00;1.90;;;16.00;1.00;;;;;;7389803;19;20471;-70
2023/07/31 01:40:00;;;;;;;6.95;1.65;;;16.00;1.00;;;;;;7388127;19;20595;-70
2023/07/31 01:42:33;;;;;;;4.18;1.83;;;16.00;1.00;;;;;;7390406;19;20014;-70
2023/07/31 01:45:03;;;;;;;4.13;1.85;;;15.80;1.00;;;;;;7390638;19;20007;-71
2023/07/31 01:47:33;;;;;;;3.90;1.67;;;15.90;1.00;;;;;;7389694;19;20038;-70
2023/07/31 01:50:03;;;;;;;6.55;2.20;;;15.80;1.00;;;;;;7389927;19;20014;-70
2023/07/31 01:52:33;;;;;;;6.50;2.20;;;15.90;1.00;;;;;;7390217;19;20022;-70
2023/07/31 01:55:03;;;;;;;7.78;1.88;;;15.90;1.00;;;;;;7390191;19;20015;-70
2023/07/31 01:57:36;;;;;;;3.63;1.50;;;15.90;1.00;;;;;;7390457;19;20022;-70
2023/07/31 02:00:07;;;;;;;6.70;1.45;;;15.90;1.00;;;;;;7389297;19;20466;-70
2023/07/31 02:02:37;;;;;;;2.92;1.52;;;15.80;1.00;;;;;;7389818;19;20014;-70
2023/07/31 02:05:08;;;;;;;4.50;1.80;;;15.80;1.00;;;;;;7389329;19;20533;-70
2023/07/31 02:07:38;;;;;;;5.30;1.90;;;15.80;1.00;;;;;;7389194;19;20038;-70
2023/07/31 02:10:09;;;;;;;2.40;1.73;;;15.70;1.00;;;;;;7388815;19;20355;-70
2023/07/31 02:12:41;;;;;;;3.80;1.75;;;15.70;1.00;;;;;;7389667;19;20027;-70
2023/07/31 02:15:12;;;;;;;5.10;2.13;;;15.80;1.00;;;;;;7389104;19;20042;-70
2023/07/31 02:17:42;;;;;;;6.60;2.30;;;15.80;1.00;;;;;;7389493;19;20015;-70
2023/07/31 02:20:13;;;;;;;3.85;2.10;;;15.80;1.00;;;;;;7388460;19;20481;-70
2023/07/31 02:22:43;;;;;;;7.18;1.70;;;15.80;1.00;;;;;;7389485;19;20018;-70
2023/07/31 02:25:13;;;;;;;5.15;1.95;;;15.80;1.00;;;;;;7388912;19;20018;-70
2023/07/31 02:27:45;;;;;;;2.92;1.75;;;15.90;1.00;;;;;;7388233;19;20027;-70
2023/07/31 02:30:15;;;;;;;5.93;1.95;;;15.90;1.00;;;;;;7388445;19;20028;-70
2023/07/31 02:32:45;;;;;;;3.75;2.00;;;15.90;1.00;;;;;;7389019;19;20019;-70
2023/07/31 02:35:15;;;;;;;4.10;1.80;;;15.90;1.00;;;;;;7388513;19;20021;-70
2023/07/31 02:37:45;;;;;;;4.35;2.13;;;15.90;1.00;;;;;;7389088;19;20231;-70
2023/07/31 02:40:16;;;;;;;5.55;2.00;;;15.90;1.00;;;;;;7388182;19;20042;-70
2023/07/31 02:42:48;;;;;;;3.40;2.13;;;15.90;1.00;;;;;;7389054;19;20490;-70
2023/07/31 02:45:18;;;;;;;3.92;1.98;;;15.90;1.00;;;;;;7389326;19;20014;-70
2023/07/31 02:47:48;;;;;;;5.15;1.90;;;15.90;1.00;;;;;;7392059;19;20015;-70
2023/07/31 02:50:18;;;;;;;4.20;2.20;;;15.90;1.00;;;;;;7394778;19;20018;-70
2023/07/31 02:52:48;;;;;;;6.28;1.67;;;15.90;1.00;;;;;;7396137;19;20018;-70
2023/07/31 02:55:18;;;;;;;3.67;1.70;;;15.90;1.00;;;;;;7395907;19;20015;-70
2023/07/31 02:57:52;;;;;;;7.80;2.08;;;15.90;1.00;;;;;;7396228;19;20022;-70
2023/07/31 03:00:22;;;;;;;2.43;1.80;;;15.90;1.00;;;;;;7395061;19;20018;-70
2023/07/31 03:02:52;;;;;;;5.72;2.55;;;15.90;1.00;;;;;;7396258;19;20015;-70
2023/07/31 03:05:22;;;;;;;4.05;1.90;;;15.90;1.00;;;;;;7395175;19;20050;-70
2023/07/31 03:07:54;;;;;;;3.53;1.80;;;15.90;1.00;;;;;;7395175;19;20032;-70
2023/07/31 03:10:24;;;;;;;6.85;2.20;;;15.80;1.00;;;;;;7394681;19;20014;-71
2023/07/31 03:12:56;;;;;;;3.70;2.10;;;15.80;1.00;;;;;;7396007;19;20010;-70
2023/07/31 03:15:26;;;;;;;6.03;2.22;;;15.70;1.00;;;;;;7394981;19;20462;-70
2023/07/31 03:17:56;;;;;;;6.25;2.28;;;15.70;1.00;;;;;;7395285;19;20086;-70
2023/07/31 03:20:26;;;;;;;4.80;2.38;;;15.70;1.00;;;;;;7393919;19;20042;-70
2023/07/31 03:22:56;;;;;;;6.35;2.30;;;15.60;1.00;;;;;;7393786;19;20407;-69
2023/07/31 03:25:26;;;;;;;3.67;1.70;;;15.70;1.00;;;;;;7394587;19;20506;-70
2023/07/31 03:27:58;;;;;;;5.38;2.13;;;15.70;1.00;;;;;;7392589;19;20499;-70
2023/07/31 03:30:29;;;;;;;4.88;1.90;;;15.70;1.00;;;;;;7394399;19;20011;-70
2023/07/31 03:32:59;;;;;;;3.45;1.90;;;15.70;1.00;;;;;;7394894;19;20030;-70
2023/07/31 03:35:29;;;;;;;3.38;2.15;;;15.70;1.00;;;;;;7394745;19;20014;-70
2023/07/31 03:37:59;;;;;;;5.90;2.40;;;15.60;1.00;;;;;;7394695;19;20010;-70
2023/07/31 03:40:29;;;;;;;5.68;2.10;;;15.60;1.00;;;;;;7393204;19;20007;-70
2023/07/31 03:43:01;;;;;;;3.80;1.83;;;15.50;1.00;;;;;;7394959;19;20422;-70
2023/07/31 03:45:31;;;;;;;5.15;2.05;;;15.50;1.00;;;;;;7395242;19;20003;-70
2023/07/31 03:48:01;;;;;;;4.00;2.20;;;15.50;1.00;;;;;;7393926;19;20029;-70
2023/07/31 03:50:31;;;;;;;5.30;1.83;;;15.50;1.00;;;;;;7393533;19;20362;-70
2023/07/31 03:53:01;;;;;;;4.30;2.03;;;15.50;1.00;;;;;;7394006;19;20031;-70
2023/07/31 03:55:31;;;;;;;3.03;1.65;;;15.50;1.00;;;;;;7393667;19;20486;-70
2023/07/31 03:58:03;;;;;;;4.50;2.17;;;15.60;1.00;;;;;;7394035;19;20435;-70
2023/07/31 04:00:33;;;;;;;2.80;1.88;;;15.50;1.00;;;;;;7391913;19;20010;-70
2023/07/31 04:03:03;;;;;;;4.15;1.75;;;15.50;1.00;;;;;;7394249;19;20011;-69
2023/07/31 04:05:34;;;;;;;4.63;1.92;;;15.50;1.00;;;;;;7393305;19;20018;-70
2023/07/31 04:08:04;;;;;;;5.78;2.00;;;15.60;1.00;;;;;;7393385;19;20317;-69
2023/07/31 04:10:34;;;;;;;3.42;1.88;;;15.60;1.00;;;;;;7391936;19;20387;-69
2023/07/31 04:13:07;;;;;;;4.53;1.90;;;15.70;1.00;;;;;;7393617;19;20480;-69
2023/07/31 04:15:37;;;;;;;6.85;1.98;;;15.70;1.00;;;;;;7392857;19;20031;-69
2023/07/31 04:18:07;;;;;;;4.10;2.00;;;16.00;1.00;;;;;;7393021;19;20035;-69
2023/07/31 04:20:37;;;;;;;5.72;2.20;;;16.90;1.00;;;;;;7391926;19;20510;-69
2023/07/31 04:23:08;;;;;;;6.68;2.00;;;16.90;1.00;;;;;;7393097;19;20037;-70
2023/07/31 04:25:38;;;;;;;4.85;1.73;;;16.80;1.00;;;;;;7392672;19;20565;-70
2023/07/31 04:28:11;;;;;;;4.78;1.75;;;16.50;1.00;;;;;;7392686;19;20027;-70
2023/07/31 04:30:42;;;;;;;2.90;1.63;;;16.30;1.00;;;;;;7391316;19;20038;-70
2023/07/31 04:33:12;;;;;;;5.05;1.60;;;16.40;1.00;;;;;;7392838;19;20374;-70
2023/07/31 04:35:42;;;;;;;5.47;1.65;;;16.40;1.00;;;;;;7390932;19;20023;-70
2023/07/31 04:38:11;;;;;;;4.15;2.40;;;16.50;1.00;;;;;;7392785;19;20014;-69
2023/07/31 04:40:41;;;;;;;3.20;1.65;;;17.20;1.00;;;;;;7391241;19;20031;-70
2023/07/31 04:43:14;;;;;;;5.25;2.05;;;17.40;1.00;;;;;;7392259;19;20047;-68
2023/07/31 04:45:48;;;;;;;5.97;1.80;;;17.60;1.00;;;;;;7393220;19;20014;-71
2023/07/31 04:48:18;;;;;;;3.35;1.80;;;17.50;1.00;;;;;;7391498;19;20014;-69
2023/07/31 04:50:48;;;;;;;2.85;1.70;;;17.40;1.00;;;;;;7390808;19;20367;-69
2023/07/31 04:53:18;;;;;;;4.93;1.60;;;17.50;1.00;;;;;;7392019;19;20014;-69
2023/07/31 04:55:48;;;;;;;5.30;1.85;;;17.40;1.00;;;;;;7391448;19;20010;-69
2023/07/31 04:58:20;;;;;;;4.00;1.90;;;17.30;1.00;;;;;;7391712;19;20018;-69
2023/07/31 05:00:50;;;;;;;2.03;1.35;;;18.20;1.00;;;;;;7390593;19;20031;-70
2023/07/31 05:03:20;;;;;;;5.70;1.58;;;18.00;1.00;;;;;;7391975;19;20015;-70
2023/07/31 05:05:50;;;;;;;3.80;1.60;;;18.00;1.00;;;;;;7391245;19;20363;-70
2023/07/31 05:08:20;;;;;;;3.50;1.35;;;18.20;1.00;;;;;;7391127;19;20100;-70
2023/07/31 05:10:50;;;;;;;8.20;1.80;;;18.10;1.00;;;;;;7387457;19;20018;-70
2023/07/31 05:13:23;;;;;;;4.80;1.70;;;17.90;1.00;;;;;;7391512;19;20078;-70
2023/07/31 05:15:52;;;;;;;6.32;2.00;;;17.50;1.00;;;;;;7391092;19;20589;-70
2023/07/31 05:18:22;;;;;;;6.68;1.73;;;17.40;1.00;;;;;;7391123;19;20046;-69
2023/07/31 05:20:52;;;;;;;3.05;1.33;;;17.60;1.00;;;;;;7389790;19;20031;-70
2023/07/31 05:23:22;;;;;;;4.53;1.75;;;17.80;1.00;;;;;;7390733;19;20014;-70
2023/07/31 05:25:52;;;;;;;5.30;2.10;;;17.90;1.00;;;;;;7390648;19;20444;-70
2023/07/31 05:28:25;;;;;;;3.30;1.50;;;18.70;1.00;;;;;;7391027;19;20018;-70
2023/07/31 05:31:00;;;;;;;4.25;1.65;;;20.30;1.00;;;;;;7389679;19;20022;-70
2023/07/31 05:33:30;;;;;;;3.13;1.67;;;20.80;1.00;;;;;;7390741;19;20014;-70
2023/07/31 05:36:01;;;;;;;5.68;1.73;;;20.70;1.00;;;;;;7390227;19;20474;-70
2023/07/31 05:38:31;;;;;;;2.97;1.55;;;20.80;1.00;;;;;;7390888;19;20022;-70
2023/07/31 05:41:01;;;;;;;5.18;1.83;;;21.70;1.00;;;;;;7389103;19;20046;-70
2023/07/31 05:43:33;;;;;;;5.18;1.63;;;22.30;1.00;;;;;;7389329;19;20040;-69
2023/07/31 05:46:03;;;;;;;3.22;1.63;;;21.70;1.00;;;;;;7392050;19;20054;-70
2023/07/31 05:48:35;;;;;;;4.15;1.90;;;20.60;1.00;;;;;;7390295;19;20059;-70
2023/07/31 05:51:06;;;;;;;2.15;1.52;;;19.60;1.00;;;;;;7387656;19;20387;-69
2023/07/31 05:53:40;;;;;;;5.70;1.67;;;18.90;1.00;;;;;;7389747;19;20082;-69
2023/07/31 05:56:10;;;;;;;4.97;1.60;;;18.90;1.00;;;;;;7389323;19;20011;-71
2023/07/31 05:58:43;;;;;;;3.92;1.90;;;18.70;1.00;;;;;;7389455;19;20041;-69
2023/07/31 06:01:13;;;;;;;5.28;1.73;;;18.70;1.00;;;;;;7388162;19;20039;-69
2023/07/31 06:03:43;;;;;;;3.85;1.83;;;18.70;1.00;;;;;;7389394;19;20018;-68
2023/07/31 06:06:14;;;;;;;3.70;1.40;;;18.90;1.00;;;;;;7389589;19;20018;-70
2023/07/31 06:08:44;;;;;;;3.28;1.45;;;18.90;1.00;;;;;;7387486;19;20027;-70
2023/07/31 06:11:14;;;;;;;3.67;1.70;;;19.10;1.00;;;;;;7387308;19;20018;-70
2023/07/31 06:13:48;;;;;;;3.08;1.58;;;19.30;1.00;;;;;;7388629;19;20510;-71
2023/07/31 06:16:18;;;;;;;3.25;1.55;;;18.90;1.00;;;;;;7388626;19;20037;-70
2023/07/31 06:18:48;;;;;;;4.00;1.90;;;19.10;1.00;;;;;;7387977;19;20027;-70
2023/07/31 06:21:18;;;;;;;3.83;1.58;;;19.70;1.00;;;;;;7385722;19;20031;-70
2023/07/31 06:23:48;;;;;;;5.07;1.88;;;20.40;1.00;;;;;;7388334;19;20494;-70
2023/07/31 06:26:18;;;;;;;6.35;1.70;;;20.40;1.00;;;;;;7388437;19;20493;-70
2023/07/31 06:28:50;;;;;;;6.65;1.80;;;21.20;1.00;;;;;;7388429;19;20036;-70
2023/07/31 06:31:22;;;;;;;3.90;1.63;;;22.00;1.00;;;;;;7386415;19;20018;-70
2023/07/31 06:33:53;;;;;;;2.78;1.70;;;21.20;1.00;;;;;;7388034;19;20010;-70
2023/07/31 06:36:24;;;;;;;7.60;1.77;;;21.00;1.00;;;;;;7388284;19;20384;-70
2023/07/31 06:38:54;;;;;;;4.90;1.77;;;21.40;1.00;;;;;;7387882;19;20409;-70
2023/07/31 06:41:24;;;;;;;4.60;1.67;;;22.60;1.00;;;;;;7386808;19;20034;-70
2023/07/31 06:43:56;;;;;;;2.72;1.45;;;21.10;1.00;;;;;;7388168;19;20031;-69
2023/07/31 06:46:26;;;;;;;4.18;1.63;;;20.70;1.00;;;;;;7391775;19;20023;-70
2023/07/31 06:48:56;;;;;;;4.47;1.58;;;20.30;1.00;;;;;;7387649;19;20320;-70
2023/07/31 06:51:26;;;;;;;5.05;2.17;;;20.10;1.00;;;;;;7385778;19;20048;-70
2023/07/31 06:53:56;;;;;;;4.68;1.55;;;20.30;1.00;;;;;;7387744;19;20018;-70
2023/07/31 06:56:27;;;;;;;4.30;1.70;;;20.70;1.00;;;;;;7387029;19;20019;-70
2023/07/31 06:58:59;;;;;;;3.70;1.73;;;21.00;1.00;;;;;;7387102;19;20493;-70
2023/07/31 07:01:29;;;;;;;4.00;2.00;;;21.90;1.00;;;;;;7383623;19;20023;-70
2023/07/31 07:03:59;;;;;;;3.83;1.52;;;21.90;1.00;;;;;;7387361;19;20532;-70
2023/07/31 07:06:29;;;;;;;4.35;2.03;;;21.60;1.00;;;;;;7387240;19;20395;-70
2023/07/31 07:08:59;;;;;;;3.67;1.67;;;21.70;1.00;;;;;;7386813;19;20700;-70
2023/07/31 07:11:29;;;;;;;4.00;1.90;;;21.30;1.00;;;;;;7385595;19;20423;-70
2023/07/31 07:14:02;;;;;;;6.07;1.60;;;21.40;1.00;;;;;;7386724;19;20030;-71
2023/07/31 07:16:32;;;;;;;3.85;2.03;;;21.30;1.00;;;;;;7386813;19;20538;-70
2023/07/31 07:18:59;;;;;;;7.65;1.80;;;21.30;1.00;;;;;;7386524;19;20018;-71
2023/07/31 07:21:34;;;;;;;5.43;1.75;;;21.50;1.00;;;;;;7384702;19;20022;-71
2023/07/31 07:24:03;;;;;;;4.55;2.60;;;21.20;1.00;;;;;;7386927;19;20032;-70
2023/07/31 07:26:33;;;;;;;3.00;1.58;;;21.40;1.00;;;;;;7386582;19;20033;-70
2023/07/31 07:29:07;;;;;;;4.05;1.75;;;21.20;1.00;;;;;;7386418;19;20380;-71
2023/07/31 07:31:38;;;;;;;2.60;1.65;;;21.00;1.00;;;;;;7384780;19;20045;-70
2023/07/31 07:34:07;;;;;;;5.63;2.25;;;21.00;1.00;;;;;;7388972;19;20031;-70
2023/07/31 07:36:37;;;;;;;4.45;1.92;;;21.10;1.00;;;;;;7393927;19;20018;-70
2023/07/31 07:39:08;;;;;;;6.05;1.90;;;21.50;1.00;;;;;;7392161;19;20018;-70
2023/07/31 07:41:38;;;;;;;10.40;1.65;;;21.80;1.00;;;;;;7391273;19;20028;-70
2023/07/31 07:44:11;;;;;;;3.92;1.80;;;22.00;1.00;;;;;;7393507;19;20015;-70
2023/07/31 07:46:41;;;;;;;3.05;1.60;;;22.40;1.00;;;;;;7396659;19;20130;-70
2023/07/31 07:49:11;;;;;;;4.97;1.83;;;22.60;1.00;;;;;;7393257;19;20078;-70
2023/07/31 07:51:41;;;;;;;4.13;1.38;;;22.00;1.00;;;;;;7390544;19;20888;-70
2023/07/31 07:54:11;;;;;;;4.97;2.10;;;21.90;1.00;;;;;;7393386;19;20371;-70
2023/07/31 07:56:41;;;;;;;3.38;1.60;;;22.30;1.00;;;;;;7393972;19;20486;-71
2023/07/31 07:59:14;;;;;;;5.55;1.83;;;22.20;1.00;;;;;;7393326;19;20024;-71
2023/07/31 08:01:44;;;;;;;4.78;1.85;;;22.50;1.00;;;;;;7388767;19;20010;-71
2023/07/31 08:04:13;;;;;;;5.80;2.10;;;22.80;1.00;;;;;;7392737;19;20596;-71
2023/07/31 08:06:43;;;;;;;4.43;2.20;;;22.80;1.00;;;;;;7393200;19;20014;-71
2023/07/31 08:09:13;;;;;;;4.55;1.75;;;22.50;1.00;;;;;;7392834;19;20038;-71
2023/07/31 08:11:43;;;;;;;6.60;1.90;;;22.90;1.00;;;;;;7389758;19;20041;-71
2023/07/31 08:14:16;;;;;;;3.47;1.70;;;23.20;1.00;;;;;;7392216;19;20541;-70
2023/07/31 08:16:46;;;;;;;3.22;1.65;;;23.50;1.00;;;;;;7392374;19;20010;-70
2023/07/31 08:19:16;;;;;;;3.55;1.80;;;23.00;1.00;;;;;;7392351;19;20558;-70
2023/07/31 08:21:46;;;;;;;7.95;2.78;;;23.20;1.00;;;;;;7389995;19;20134;-70
2023/07/31 08:24:16;;;;;;;5.28;2.28;;;22.90;1.00;;;;;;7392423;19;20039;-70
2023/07/31 08:26:46;;;;;;;3.40;1.65;;;22.80;1.00;;;;;;7393171;19;20356;-70
2023/07/31 08:29:18;;;;;;;6.85;1.98;;;22.40;1.00;;;;;;7392820;19;20495;-71
2023/07/31 08:31:48;;;;;;;6.65;2.10;;;22.60;1.00;;;;;;7389612;19;20035;-71
2023/07/31 08:34:18;;;;;;;4.45;1.90;;;22.90;1.00;;;;;;7391312;19;20018;-71
2023/07/31 08:36:48;;;;;;;5.40;1.80;;;23.30;1.00;;;;;;7392419;19;20673;-71
2023/07/31 08:39:18;;;;;;;5.80;2.33;;;22.60;1.00;;;;;;7392251;19;20014;-71
2023/07/31 08:41:48;;;;;;;6.32;2.00;;;22.70;1.00;;;;;;7389881;19;20074;-69
2023/07/31 08:44:21;;;;;;;4.78;2.42;;;22.60;1.00;;;;;;7392027;19;20014;-71
2023/07/31 08:46:52;;;;;;;6.45;1.98;;;22.80;1.00;;;;;;7395040;19;20089;-71
2023/07/31 08:49:24;;;;;;;4.25;1.90;;;22.50;1.00;;;;;;7392180;19;20011;-71
2023/07/31 08:51:57;;;;;;;5.05;2.40;;;23.20;1.00;;;;;;7390168;19;20431;-72
2023/07/31 08:54:30;;;;;;;7.20;2.55;;;23.00;1.00;;;;;;7391449;19;20026;-70
2023/07/31 08:57:01;;;;;;;6.15;2.20;;;22.80;1.00;;;;;;7391554;19;20022;-70
2023/07/31 08:59:36;;;;;;;6.85;2.45;;;22.80;1.00;;;;;;7390852;19;20226;-71
2023/07/31 09:02:10;;;;;;;8.05;2.20;;;22.90;1.00;;;;;;7390600;19;20537;-71
2023/07/31 09:04:40;;;;;;;3.55;1.90;;;22.90;1.00;;;;;;7390947;19;20015;-71
2023/07/31 09:07:13;;;;;;;5.05;2.08;;;23.10;1.00;;;;;;7391919;19;20015;-71
2023/07/31 09:09:43;;;;;;;3.40;1.80;;;22.80;1.00;;;;;;7390560;19;20011;-71
2023/07/31 09:12:13;;;;;;;3.80;1.70;;;22.70;1.00;;;;;;7390031;19;20033;-71
2023/07/31 09:14:48;;;;;;;5.72;1.98;;;22.80;1.00;;;;;;7390947;19;20034;-71
2023/07/31 09:17:18;;;;;;;5.68;2.10;;;22.60;1.00;;;;;;7390784;19;20035;-71
2023/07/31 09:19:48;;;;;;;5.10;3.15;;;22.30;1.00;;;;;;7390174;19;20018;-71
2023/07/31 09:22:18;;;;;;;5.22;1.80;;;22.10;1.00;;;;;;7390364;19;20107;-72
2023/07/31 09:24:47;;;;;;;7.75;1.90;;;22.40;1.00;;;;;;7390810;19;20483;-72
2023/07/31 09:27:17;;;;;;;5.85;1.70;;;22.10;1.00;;;;;;7388833;19;20090;-71
2023/07/31 09:30:01;;;;;;;4.63;2.28;;;22.50;1.00;;;;;;7389989;19;20042;-71
2023/07/31 09:32:34;;;;;;;6.53;2.17;;;22.50;1.00;;;;;;7389278;19;20022;-71
2023/07/31 09:35:04;;;;;;;5.97;1.92;;;22.70;1.00;;;;;;7390509;19;20410;-71
2023/07/31 09:37:33;;;;;;;7.22;2.40;;;22.90;1.00;;;;;;7390382;19;20367;-71
2023/07/31 09:40:03;;;;;;;4.13;1.65;;;22.60;1.00;;;;;;7389651;19;20194;-70
2023/07/31 09:42:34;;;;;;;6.20;2.28;;;22.50;1.00;;;;;;7389873;19;20474;-71
2023/07/31 09:45:16;;;;;;;3.83;1.80;;;22.90;1.00;;;;;;7389881;19;20019;-72
2023/07/31 09:47:50;;;;;;;3.92;2.08;;;23.00;1.00;;;;;;7390047;19;20508;-71
2023/07/31 09:50:23;;;;;;;4.85;2.28;;;23.60;1.00;;;;;;7387955;19;20037;-71
2023/07/31 09:52:54;;;;;;;6.60;1.85;;;23.10;1.00;;;;;;7388076;19;20018;-71
2023/07/31 09:55:24;;;;;;;4.05;1.95;;;23.00;1.00;;;;;;7389959;19;20010;-71
2023/07/31 09:57:54;;;;;;;5.38;2.08;;;23.50;1.00;;;;;;7387501;19;20577;-71
2023/07/31 10:00:28;;;;;;;5.60;2.25;;;23.50;1.00;;;;;;7388618;19;20360;-72
2023/07/31 10:03:03;;;;;;;4.45;2.00;;;23.90;1.00;;;;;;7386965;19;20021;-71
2023/07/31 10:05:39;;;;;;;4.50;2.22;;;23.70;1.00;;;;;;7388450;19;20011;-72
2023/07/31 10:08:11;;;;;;;8.05;2.15;;;23.90;1.00;;;;;;7388504;19;20038;-72
2023/07/31 10:10:44;;;;;;;5.10;1.80;;;24.30;1.00;;;;;;7387709;19;20448;-71
2023/07/31 10:13:15;;;;;;;4.90;2.33;;;24.30;1.00;;;;;;7387391;19;20346;-71
2023/07/31 10:15:48;;;;;;;4.70;2.13;;;24.00;1.00;;;;;;7387102;19;20030;-72
2023/07/31 10:18:19;;;;;;;5.10;1.90;;;23.90;1.00;;;;;;7387999;19;20010;-71
2023/07/31 10:20:49;;;;;;;4.20;2.17;;;23.80;1.00;;;;;;7387518;19;20022;-72
2023/07/31 10:23:20;;;;;;;6.15;2.40;;;23.70;1.00;;;;;;7388189;19;20018;-70
2023/07/31 10:25:50;;;;;;;4.28;1.98;;;23.40;1.00;;;;;;7389016;19;20094;-70
2023/07/31 10:28:21;;;;;;;5.25;2.53;;;22.90;1.00;;;;;;7388125;19;20010;-71
2023/07/31 10:30:54;;;;;;;2.85;1.83;;;23.70;1.00;;;;;;7387717;19;20015;-71
2023/07/31 10:33:25;;;;;;;4.05;1.92;;;24.00;1.00;;;;;;7386633;19;20034;-72
2023/07/31 10:36:15;;;;;;;4.95;1.92;;;23.80;1.00;;;;;;7388769;19;20031;-71
2023/07/31 10:38:45;;;;;;;3.03;2.00;;;23.70;1.00;;;;;;7387846;19;20128;-71
2023/07/31 10:41:15;;;;;;;3.38;1.80;;;23.60;1.00;;;;;;7386810;19;20018;-71
2023/07/31 10:43:45;;;;;;;4.63;2.13;;;23.90;1.00;;;;;;7387216;19;20031;-71
2023/07/31 10:46:18;;;;;;;5.03;2.60;;;23.80;1.00;;;;;;7391110;19;20110;-70
2023/07/31 10:48:48;;;;;;;6.25;2.08;;;23.80;1.00;;;;;;7386845;19;20010;-71
2023/07/31 10:51:18;;;;;;;5.40;2.30;;;23.40;1.00;;;;;;7387138;19;20407;-72
2023/07/31 10:53:48;;;;;;;4.00;2.00;;;23.40;1.00;;;;;;7385684;19;20018;-70
2023/07/31 10:56:22;;;;;;;4.53;1.92;;;23.40;1.00;;;;;;7387309;19;20022;-72
2023/07/31 10:59:03;;;;;;;4.20;2.22;;;23.40;1.00;;;;;;7387262;19;20035;-72
2023/07/31 11:02:02;;;;;;;5.28;2.08;;;23.60;1.00;;;;;;7386026;19;20021;-71
2023/07/31 11:04:33;;;;;;;5.15;2.00;;;23.80;1.00;;;;;;7386883;19;20540;-70
2023/07/31 11:07:08;;;;;;;3.22;2.00;;;24.00;1.00;;;;;;7387197;19;20014;-72
2023/07/31 11:09:38;;;;;;;5.75;2.08;;;23.60;1.00;;;;;;7391087;19;20019;-71
2023/07/31 11:12:09;;;;;;;6.68;2.25;;;23.70;1.00;;;;;;7395450;19;20046;-72
2023/07/31 11:14:39;;;;;;;4.75;2.35;;;23.90;1.00;;;;;;7394822;19;20032;-72
2023/07/31 11:17:12;;;;;;;4.80;2.50;;;23.40;1.00;;;;;;7393935;19;20025;-71
2023/07/31 11:19:42;;;;;;;2.88;2.10;;;24.00;1.00;;;;;;7393953;19;20094;-72
2023/07/31 11:22:12;;;;;;;5.70;2.25;;;24.10;1.00;;;;;;7394902;19;20030;-72
2023/07/31 11:24:42;;;;;;;4.00;2.17;;;23.90;1.00;;;;;;7394357;19;20509;-71
2023/07/31 11:27:12;;;;;;;5.18;2.53;;;23.40;1.00;;;;;;7394346;19;20018;-71
2023/07/31 11:29:42;;;;;;;7.93;2.40;;;23.70;1.00;;;;;;7393909;19;20018;-72
2023/07/31 11:32:21;;;;;;;6.45;3.58;;;24.40;1.00;;;;;;7392673;19;20484;-70
2023/07/31 11:34:54;;;;;;;5.10;2.00;;;24.30;1.00;;;;;;7394683;19;20006;-72
2023/07/31 11:37:26;;;;;;;7.18;2.30;;;22.90;1.00;;;;;;7394558;19;20343;-71
2023/07/31 11:40:03;;;;;;;3.90;2.10;;;23.60;1.00;;;;;;7392919;19;20051;-72
2023/07/31 11:42:33;;;;;;;4.07;2.40;;;24.30;1.00;;;;;;7393398;19;20414;-71
2023/07/31 11:45:05;;;;;;;5.25;2.38;;;24.30;1.00;;;;;;7392487;19;20018;-71
2023/07/31 11:47:39;;;;;;;4.82;2.40;;;24.10;1.00;;;;;;7394092;19;20022;-72
2023/07/31 11:50:13;;;;;;;5.18;2.50;;;24.10;1.00;;;;;;7392426;19;20018;-72
2023/07/31 11:52:47;;;;;;;4.28;2.35;;;24.20;1.00;;;;;;7393663;19;20011;-71
2023/07/31 11:55:18;;;;;;;5.25;2.33;;;24.50;1.00;;;;;;7393530;19;20021;-71
2023/07/31 11:57:49;;;;;;;4.05;2.15;;;24.40;1.00;;;;;;7393260;19;20095;-71
2023/07/31 12:00:20;;;;;;;4.88;2.20;;;24.60;1.00;;;;;;7392623;19;20018;-71
2023/07/31 12:02:53;;;;;;;4.63;2.22;;;24.90;1.00;;;;;;7393143;19;20018;-71
2023/07/31 12:05:25;;;;;;;4.93;2.37;;;24.50;1.00;;;;;;7392866;19;20022;-72
2023/07/31 12:07:57;;;;;;;7.68;2.35;;;24.60;1.00;;;;;;7393684;19;20569;-71
2023/07/31 12:10:29;;;;;;;6.10;2.50;;;24.70;1.00;;;;;;7390470;19;20408;-71
2023/07/31 12:13:01;;;;;;;5.03;2.50;;;24.60;1.00;;;;;;7392712;19;20093;-71
2023/07/31 12:15:42;;;;;;;5.72;2.50;;;24.00;1.00;;;;;;7392918;19;20010;-71
2023/07/31 12:18:17;;;;;;;3.85;2.58;;;24.60;1.00;;;;;;7392597;19;20482;-71
2023/07/31 12:20:48;;;;;;;6.05;2.50;;;24.80;1.00;;;;;;7390377;19;20078;-72
2023/07/31 12:23:25;;;;;;;4.03;2.22;;;24.60;1.00;;;;;;7393158;19;20025;-72
2023/07/31 12:26:03;;;;;;;4.55;2.60;;;25.00;1.00;;;;;;7392497;19;20474;-72
2023/07/31 12:28:37;;;;;;;4.70;2.20;;;25.30;1.00;;;;;;7392699;19;20070;-71
2023/07/31 12:31:08;;;;;;;4.65;2.22;;;25.00;1.00;;;;;;7390287;19;20014;-70
2023/07/31 12:33:42;;;;;;;4.72;2.45;;;25.40;1.00;;;;;;7391501;19;20021;-71
2023/07/31 12:36:13;;;;;;;4.95;2.40;;;24.50;1.00;;;;;;7392240;19;20497;-71
2023/07/31 12:38:44;;;;;;;5.07;2.40;;;24.40;1.00;;;;;;7392843;19;20014;-71
2023/07/31 12:41:14;;;;;;;5.00;2.50;;;24.60;1.00;;;;;;7390688;19;20014;-71
2023/07/31 12:43:46;;;;;;;5.47;2.47;;;24.60;1.00;;;;;;7392288;19;20027;-71
2023/07/31 12:46:17;;;;;;;3.42;2.33;;;24.80;1.00;;;;;;7394478;19;20490;-72
2023/07/31 12:48:49;;;;;;;4.22;2.22;;;24.40;1.00;;;;;;7391882;19;20039;-71
2023/07/31 12:51:20;;;;;;;5.60;3.38;;;24.80;1.00;;;;;;7389126;19;20555;-70
2023/07/31 12:53:50;;;;;;;6.38;2.28;;;24.50;1.00;;;;;;7389841;19;20018;-72
2023/07/31 12:56:20;;;;;;;4.13;2.40;;;25.10;1.00;;;;;;7389674;19;20368;-71
2023/07/31 12:58:50;;;;;;;3.97;2.40;;;25.00;1.00;;;;;;7391693;19;20039;-71
2023/07/31 13:01:20;;;;;;;5.53;2.58;;;25.10;1.00;;;;;;7389630;19;20018;-72
2023/07/31 13:03:53;;;;;;;3.92;2.33;;;25.30;1.00;;;;;;7390839;19;20014;-72
2023/07/31 13:06:23;;;;;;;3.92;2.22;;;25.00;1.00;;;;;;7391134;19;20018;-71
2023/07/31 13:08:53;;;;;;;4.63;2.20;;;24.10;1.00;;;;;;7391112;19;20026;-71
2023/07/31 13:11:23;;;;;;;4.13;2.42;;;24.00;1.00;;;;;;7388757;19;20053;-71
2023/07/31 13:13:53;;;;;;;5.07;2.45;;;24.60;1.00;;;;;;7389862;19;20018;-70
2023/07/31 13:16:23;;;;;;;4.13;2.10;;;24.40;1.00;;;;;;7391058;19;20102;-71
2023/07/31 13:18:55;;;;;;;3.53;1.92;;;24.20;1.00;;;;;;7390864;19;20019;-72